sensor_id;sensor_type;location;lat;lon;timestamp;P1;durP1;ratioP1;P2;durP2;ratioP2
40433;SDS011;26146;51.114;5.654;2023-04-25T00:00:00;14.50;;;3.50;;
40433;SDS011;26146;51.114;5.654;2023-04-25T00:04:02;14.57;;;3.90;;
40433;SDS011;26146;51.114;5.654;2023-04-25T00:08:03;15.53;;;3.80;;
40433;SDS011;26146;51.114;5.654;2023-04-25T00:12:05;14.93;;;3.60;;
40433;SDS011;26146;51.114;5.654;2023-04-25T00:16:07;13.00;;;3.90;;
40433;SDS011;26146;51.114;5.654;2023-04-25T00:20:08;14.30;;;3.90;;
40433;SDS011;26146;51.114;5.654;2023-04-25T00:24:10;12.77;;;3.87;;
40433;SDS011;26146;51.114;5.654;2023-04-25T00:28:11;16.53;;;4.17;;
40433;SDS011;26146;51.114;5.654;2023-04-25T00:32:12;16.33;;;3.80;;
40433;SDS011;26146;51.114;5.654;2023-04-25T00:36:13;17.83;;;3.90;;
40433;SDS011;26146;51.114;5.654;2023-04-25T00:40:15;16.03;;;4.33;;
40433;SDS011;26146;51.114;5.654;2023-04-25T00:44:16;16.20;;;4.03;;
40433;SDS011;26146;51.114;5.654;2023-04-25T00:48:17;16.33;;;3.90;;
40433;SDS011;26146;51.114;5.654;2023-04-25T00:52:18;16.43;;;3.80;;
40433;SDS011;26146;51.114;5.654;2023-04-25T00:56:20;19.33;;;5.17;;
40433;SDS011;26146;51.114;5.654;2023-04-25T01:00:21;16.57;;;4.30;;
40433;SDS011;26146;51.114;5.654;2023-04-25T01:04:22;19.33;;;4.43;;
40433;SDS011;26146;51.114;5.654;2023-04-25T01:08:24;13.53;;;3.90;;
40433;SDS011;26146;51.114;5.654;2023-04-25T01:12:28;14.80;;;4.13;;
40433;SDS011;26146;51.114;5.654;2023-04-25T01:16:29;14.87;;;4.40;;
40433;SDS011;26146;51.114;5.654;2023-04-25T01:20:31;24.03;;;4.30;;
40433;SDS011;26146;51.114;5.654;2023-04-25T01:24:33;18.30;;;4.13;;
40433;SDS011;26146;51.114;5.654;2023-04-25T01:28:35;16.03;;;4.00;;
40433;SDS011;26146;51.114;5.654;2023-04-25T01:32:36;14.30;;;4.13;;
40433;SDS011;26146;51.114;5.654;2023-04-25T01:36:40;19.20;;;3.93;;
40433;SDS011;26146;51.114;5.654;2023-04-25T01:40:41;17.03;;;4.37;;
40433;SDS011;26146;51.114;5.654;2023-04-25T01:44:45;13.63;;;4.07;;
40433;SDS011;26146;51.114;5.654;2023-04-25T01:48:46;18.63;;;4.00;;
40433;SDS011;26146;51.114;5.654;2023-04-25T01:52:47;14.90;;;4.50;;
40433;SDS011;26146;51.114;5.654;2023-04-25T01:56:51;15.37;;;4.40;;
40433;SDS011;26146;51.114;5.654;2023-04-25T02:00:52;19.20;;;4.50;;
40433;SDS011;26146;51.114;5.654;2023-04-25T02:04:53;18.57;;;4.23;;
40433;SDS011;26146;51.114;5.654;2023-04-25T02:08:57;13.70;;;4.10;;
40433;SDS011;26146;51.114;5.654;2023-04-25T02:12:58;22.47;;;5.07;;
40433;SDS011;26146;51.114;5.654;2023-04-25T02:16:59;17.47;;;4.27;;
40433;SDS011;26146;51.114;5.654;2023-04-25T02:21:00;16.80;;;5.00;;
40433;SDS011;26146;51.114;5.654;2023-04-25T02:25:02;18.90;;;5.10;;
40433;SDS011;26146;51.114;5.654;2023-04-25T02:29:04;18.83;;;4.57;;
40433;SDS011;26146;51.114;5.654;2023-04-25T02:33:06;19.93;;;4.83;;
40433;SDS011;26146;51.114;5.654;2023-04-25T02:37:06;15.60;;;4.20;;
40433;SDS011;26146;51.114;5.654;2023-04-25T02:41:07;17.80;;;4.80;;
40433;SDS011;26146;51.114;5.654;2023-04-25T02:45:09;19.53;;;5.03;;
40433;SDS011;26146;51.114;5.654;2023-04-25T02:49:10;17.27;;;4.47;;
40433;SDS011;26146;51.114;5.654;2023-04-25T02:53:11;21.10;;;4.50;;
40433;SDS011;26146;51.114;5.654;2023-04-25T02:57:12;16.83;;;4.40;;
40433;SDS011;26146;51.114;5.654;2023-04-25T03:01:13;22.00;;;4.90;;
40433;SDS011;26146;51.114;5.654;2023-04-25T03:05:14;18.17;;;4.47;;
40433;SDS011;26146;51.114;5.654;2023-04-25T03:09:16;19.83;;;4.90;;
40433;SDS011;26146;51.114;5.654;2023-04-25T03:13:18;16.70;;;4.83;;
40433;SDS011;26146;51.114;5.654;2023-04-25T03:17:19;14.80;;;4.17;;
40433;SDS011;26146;51.114;5.654;2023-04-25T03:21:20;17.93;;;4.73;;
40433;SDS011;26146;51.114;5.654;2023-04-25T03:25:21;15.63;;;4.60;;
40433;SDS011;26146;51.114;5.654;2023-04-25T03:29:22;19.57;;;5.13;;
40433;SDS011;26146;51.114;5.654;2023-04-25T03:33:25;18.83;;;5.00;;
40433;SDS011;26146;51.114;5.654;2023-04-25T03:37:26;19.27;;;4.70;;
40433;SDS011;26146;51.114;5.654;2023-04-25T03:41:27;17.80;;;5.30;;
40433;SDS011;26146;51.114;5.654;2023-04-25T03:45:28;21.40;;;5.10;;
40433;SDS011;26146;51.114;5.654;2023-04-25T03:49:30;16.07;;;4.83;;
40433;SDS011;26146;51.114;5.654;2023-04-25T03:53:31;15.47;;;4.80;;
40433;SDS011;26146;51.114;5.654;2023-04-25T03:57:32;19.53;;;4.53;;
40433;SDS011;26146;51.114;5.654;2023-04-25T04:01:33;17.90;;;4.40;;
40433;SDS011;26146;51.114;5.654;2023-04-25T04:05:34;23.43;;;5.03;;
40433;SDS011;26146;51.114;5.654;2023-04-25T04:09:35;20.43;;;4.63;;
40433;SDS011;26146;51.114;5.654;2023-04-25T04:13:36;18.03;;;4.83;;
40433;SDS011;26146;51.114;5.654;2023-04-25T04:17:37;19.73;;;4.60;;
40433;SDS011;26146;51.114;5.654;2023-04-25T04:21:38;19.50;;;4.73;;
40433;SDS011;26146;51.114;5.654;2023-04-25T04:25:39;20.43;;;4.90;;
40433;SDS011;26146;51.114;5.654;2023-04-25T04:29:40;19.60;;;5.37;;
40433;SDS011;26146;51.114;5.654;2023-04-25T04:33:41;17.37;;;4.90;;
40433;SDS011;26146;51.114;5.654;2023-04-25T04:37:43;15.43;;;4.30;;
40433;SDS011;26146;51.114;5.654;2023-04-25T04:41:45;14.53;;;4.23;;
40433;SDS011;26146;51.114;5.654;2023-04-25T04:45:46;18.63;;;4.60;;
40433;SDS011;26146;51.114;5.654;2023-04-25T04:49:48;19.80;;;4.47;;
40433;SDS011;26146;51.114;5.654;2023-04-25T04:53:49;19.23;;;4.87;;
40433;SDS011;26146;51.114;5.654;2023-04-25T04:57:50;18.13;;;4.53;;
40433;SDS011;26146;51.114;5.654;2023-04-25T05:01:52;19.90;;;4.83;;
40433;SDS011;26146;51.114;5.654;2023-04-25T05:05:53;22.63;;;5.30;;
40433;SDS011;26146;51.114;5.654;2023-04-25T05:09:54;17.80;;;4.97;;
40433;SDS011;26146;51.114;5.654;2023-04-25T05:13:55;23.83;;;5.27;;
40433;SDS011;26146;51.114;5.654;2023-04-25T05:17:57;22.03;;;4.63;;
40433;SDS011;26146;51.114;5.654;2023-04-25T05:21:58;21.07;;;4.70;;
40433;SDS011;26146;51.114;5.654;2023-04-25T05:25:59;25.90;;;4.63;;
40433;SDS011;26146;51.114;5.654;2023-04-25T05:30:00;15.83;;;4.73;;
40433;SDS011;26146;51.114;5.654;2023-04-25T05:34:02;17.93;;;4.67;;
40433;SDS011;26146;51.114;5.654;2023-04-25T05:38:05;22.67;;;4.97;;
40433;SDS011;26146;51.114;5.654;2023-04-25T05:42:06;19.63;;;4.50;;
40433;SDS011;26146;51.114;5.654;2023-04-25T05:46:07;18.17;;;4.37;;
40433;SDS011;26146;51.114;5.654;2023-04-25T05:50:09;14.57;;;4.50;;
40433;SDS011;26146;51.114;5.654;2023-04-25T05:54:10;18.97;;;4.80;;
40433;SDS011;26146;51.114;5.654;2023-04-25T05:58:11;17.60;;;4.43;;
40433;SDS011;26146;51.114;5.654;2023-04-25T06:02:12;18.13;;;4.70;;
40433;SDS011;26146;51.114;5.654;2023-04-25T06:06:13;16.13;;;4.90;;
40433;SDS011;26146;51.114;5.654;2023-04-25T06:10:15;19.13;;;4.90;;
40433;SDS011;26146;51.114;5.654;2023-04-25T06:14:16;14.53;;;4.03;;
40433;SDS011;26146;51.114;5.654;2023-04-25T06:18:17;20.57;;;4.87;;
40433;SDS011;26146;51.114;5.654;2023-04-25T06:22:18;14.87;;;4.53;;
40433;SDS011;26146;51.114;5.654;2023-04-25T06:26:19;18.43;;;4.20;;
40433;SDS011;26146;51.114;5.654;2023-04-25T06:30:20;17.67;;;4.07;;
40433;SDS011;26146;51.114;5.654;2023-04-25T06:34:25;15.68;;;3.85;;
40433;SDS011;26146;51.114;5.654;2023-04-25T06:38:26;14.97;;;3.60;;
40433;SDS011;26146;51.114;5.654;2023-04-25T06:42:27;18.20;;;4.10;;
40433;SDS011;26146;51.114;5.654;2023-04-25T06:46:29;17.57;;;3.70;;
40433;SDS011;26146;51.114;5.654;2023-04-25T06:50:30;13.67;;;3.53;;
40433;SDS011;26146;51.114;5.654;2023-04-25T06:54:31;20.53;;;3.60;;
40433;SDS011;26146;51.114;5.654;2023-04-25T06:58:32;17.60;;;3.37;;
40433;SDS011;26146;51.114;5.654;2023-04-25T07:02:33;12.37;;;2.93;;
40433;SDS011;26146;51.114;5.654;2023-04-25T07:06:34;12.77;;;3.03;;
40433;SDS011;26146;51.114;5.654;2023-04-25T07:10:38;19.40;;;3.03;;
40433;SDS011;26146;51.114;5.654;2023-04-25T07:14:40;11.80;;;2.50;;
40433;SDS011;26146;51.114;5.654;2023-04-25T07:18:41;16.67;;;2.93;;
40433;SDS011;26146;51.114;5.654;2023-04-25T07:22:42;17.37;;;2.80;;
40433;SDS011;26146;51.114;5.654;2023-04-25T07:26:44;14.77;;;2.80;;
40433;SDS011;26146;51.114;5.654;2023-04-25T07:30:45;17.17;;;3.10;;
40433;SDS011;26146;51.114;5.654;2023-04-25T07:34:46;14.73;;;3.00;;
40433;SDS011;26146;51.114;5.654;2023-04-25T07:38:47;13.10;;;2.10;;
40433;SDS011;26146;51.114;5.654;2023-04-25T07:42:48;12.77;;;2.07;;
40433;SDS011;26146;51.114;5.654;2023-04-25T07:46:49;12.53;;;2.63;;
40433;SDS011;26146;51.114;5.654;2023-04-25T07:50:50;14.17;;;2.70;;
40433;SDS011;26146;51.114;5.654;2023-04-25T07:54:51;14.77;;;2.37;;
40433;SDS011;26146;51.114;5.654;2023-04-25T07:58:52;8.80;;;1.60;;
40433;SDS011;26146;51.114;5.654;2023-04-25T08:02:54;12.13;;;2.20;;
40433;SDS011;26146;51.114;5.654;2023-04-25T08:06:55;13.00;;;2.80;;
40433;SDS011;26146;51.114;5.654;2023-04-25T08:10:56;15.30;;;2.90;;
40433;SDS011;26146;51.114;5.654;2023-04-25T08:14:57;10.77;;;2.40;;
40433;SDS011;26146;51.114;5.654;2023-04-25T08:18:59;11.67;;;2.57;;
40433;SDS011;26146;51.114;5.654;2023-04-25T08:23:00;10.33;;;2.30;;
40433;SDS011;26146;51.114;5.654;2023-04-25T08:27:01;14.80;;;2.77;;
40433;SDS011;26146;51.114;5.654;2023-04-25T08:31:02;11.07;;;2.20;;
40433;SDS011;26146;51.114;5.654;2023-04-25T08:35:04;12.63;;;2.50;;
40433;SDS011;26146;51.114;5.654;2023-04-25T08:39:05;10.37;;;2.63;;
40433;SDS011;26146;51.114;5.654;2023-04-25T08:43:07;12.63;;;2.50;;
40433;SDS011;26146;51.114;5.654;2023-04-25T08:47:11;10.33;;;2.37;;
40433;SDS011;26146;51.114;5.654;2023-04-25T08:51:15;8.97;;;1.73;;
40433;SDS011;26146;51.114;5.654;2023-04-25T08:55:22;11.50;;;2.47;;
40433;SDS011;26146;51.114;5.654;2023-04-25T08:59:24;9.37;;;1.47;;
40433;SDS011;26146;51.114;5.654;2023-04-25T09:03:25;10.07;;;1.60;;
40433;SDS011;26146;51.114;5.654;2023-04-25T09:07:26;10.40;;;1.60;;
40433;SDS011;26146;51.114;5.654;2023-04-25T09:11:27;10.17;;;1.33;;
40433;SDS011;26146;51.114;5.654;2023-04-25T09:15:29;8.93;;;1.50;;
40433;SDS011;26146;51.114;5.654;2023-04-25T09:23:41;9.20;;;1.50;;
40433;SDS011;26146;51.114;5.654;2023-04-25T09:27:51;11.98;;;1.40;;
40433;SDS011;26146;51.114;5.654;2023-04-25T09:32:03;13.57;;;1.80;;
40433;SDS011;26146;51.114;5.654;2023-04-25T09:36:11;7.73;;;1.60;;
40433;SDS011;26146;51.114;5.654;2023-04-25T09:40:13;7.93;;;1.33;;
40433;SDS011;26146;51.114;5.654;2023-04-25T09:44:14;8.17;;;1.40;;
40433;SDS011;26146;51.114;5.654;2023-04-25T09:48:19;11.60;;;1.83;;
40433;SDS011;26146;51.114;5.654;2023-04-25T09:52:22;8.10;;;1.20;;
40433;SDS011;26146;51.114;5.654;2023-04-25T09:56:24;9.10;;;1.30;;
40433;SDS011;26146;51.114;5.654;2023-04-25T10:00:32;8.60;;;1.20;;
40433;SDS011;26146;51.114;5.654;2023-04-25T10:04:34;8.23;;;1.10;;
40433;SDS011;26146;51.114;5.654;2023-04-25T10:08:36;7.27;;;1.30;;
40433;SDS011;26146;51.114;5.654;2023-04-25T10:12:38;8.93;;;1.10;;
40433;SDS011;26146;51.114;5.654;2023-04-25T10:16:40;7.87;;;1.10;;
40433;SDS011;26146;51.114;5.654;2023-04-25T10:20:43;8.90;;;1.10;;
40433;SDS011;26146;51.114;5.654;2023-04-25T10:24:44;7.73;;;1.20;;
40433;SDS011;26146;51.114;5.654;2023-04-25T10:32:59;6.43;;;1.20;;
40433;SDS011;26146;51.114;5.654;2023-04-25T10:37:00;9.37;;;1.10;;
40433;SDS011;26146;51.114;5.654;2023-04-25T10:41:04;10.20;;;1.33;;
40433;SDS011;26146;51.114;5.654;2023-04-25T10:45:09;8.47;;;1.00;;
40433;SDS011;26146;51.114;5.654;2023-04-25T10:49:10;9.97;;;1.30;;
40433;SDS011;26146;51.114;5.654;2023-04-25T10:53:30;12.07;;;1.23;;
40433;SDS011;26146;51.114;5.654;2023-04-25T10:57:40;9.85;;;1.10;;
40433;SDS011;26146;51.114;5.654;2023-04-25T11:01:47;8.87;;;1.40;;
40433;SDS011;26146;51.114;5.654;2023-04-25T11:05:52;8.97;;;1.30;;
40433;SDS011;26146;51.114;5.654;2023-04-25T11:09:57;8.75;;;1.30;;
40433;SDS011;26146;51.114;5.654;2023-04-25T11:14:03;6.68;;;1.00;;
40433;SDS011;26146;51.114;5.654;2023-04-25T11:18:04;9.05;;;1.17;;
40433;SDS011;26146;51.114;5.654;2023-04-25T11:22:05;6.73;;;1.27;;
40433;SDS011;26146;51.114;5.654;2023-04-25T11:26:07;6.50;;;0.90;;
40433;SDS011;26146;51.114;5.654;2023-04-25T11:30:14;7.85;;;1.10;;
40433;SDS011;26146;51.114;5.654;2023-04-25T11:34:17;7.03;;;1.10;;
40433;SDS011;26146;51.114;5.654;2023-04-25T11:38:18;6.63;;;1.10;;
40433;SDS011;26146;51.114;5.654;2023-04-25T11:42:20;5.80;;;0.90;;
40433;SDS011;26146;51.114;5.654;2023-04-25T11:46:21;5.13;;;0.80;;
40433;SDS011;26146;51.114;5.654;2023-04-25T11:50:22;7.47;;;1.08;;
40433;SDS011;26146;51.114;5.654;2023-04-25T11:54:24;6.57;;;0.90;;
40433;SDS011;26146;51.114;5.654;2023-04-25T11:58:25;7.15;;;1.00;;
40433;SDS011;26146;51.114;5.654;2023-04-25T12:02:27;6.40;;;0.93;;
40433;SDS011;26146;51.114;5.654;2023-04-25T12:06:28;8.07;;;1.02;;
40433;SDS011;26146;51.114;5.654;2023-04-25T12:10:30;6.43;;;0.95;;
40433;SDS011;26146;51.114;5.654;2023-04-25T12:14:32;8.60;;;1.00;;
40433;SDS011;26146;51.114;5.654;2023-04-25T12:18:35;6.47;;;1.20;;
40433;SDS011;26146;51.114;5.654;2023-04-25T12:22:36;7.17;;;1.13;;
40433;SDS011;26146;51.114;5.654;2023-04-25T12:26:47;6.43;;;1.10;;
40433;SDS011;26146;51.114;5.654;2023-04-25T12:30:57;7.23;;;1.03;;
40433;SDS011;26146;51.114;5.654;2023-04-25T12:34:59;6.43;;;1.07;;
40433;SDS011;26146;51.114;5.654;2023-04-25T12:39:01;5.07;;;0.83;;
40433;SDS011;26146;51.114;5.654;2023-04-25T12:43:04;5.70;;;0.87;;
40433;SDS011;26146;51.114;5.654;2023-04-25T12:47:05;7.73;;;1.00;;
40433;SDS011;26146;51.114;5.654;2023-04-25T12:51:07;4.43;;;0.90;;
40433;SDS011;26146;51.114;5.654;2023-04-25T12:55:08;5.90;;;0.87;;
40433;SDS011;26146;51.114;5.654;2023-04-25T12:59:09;8.00;;;1.00;;
40433;SDS011;26146;51.114;5.654;2023-04-25T13:03:10;5.67;;;1.10;;
40433;SDS011;26146;51.114;5.654;2023-04-25T13:07:12;7.67;;;1.07;;
40433;SDS011;26146;51.114;5.654;2023-04-25T13:11:13;7.27;;;1.00;;
40433;SDS011;26146;51.114;5.654;2023-04-25T13:15:17;7.00;;;0.97;;
40433;SDS011;26146;51.114;5.654;2023-04-25T13:19:18;7.53;;;1.10;;
40433;SDS011;26146;51.114;5.654;2023-04-25T13:23:19;9.27;;;1.20;;
40433;SDS011;26146;51.114;5.654;2023-04-25T13:27:21;8.60;;;1.20;;
40433;SDS011;26146;51.114;5.654;2023-04-25T13:31:22;6.70;;;1.00;;
40433;SDS011;26146;51.114;5.654;2023-04-25T13:35:23;8.87;;;1.00;;
40433;SDS011;26146;51.114;5.654;2023-04-25T13:39:24;5.27;;;0.80;;
40433;SDS011;26146;51.114;5.654;2023-04-25T13:43:26;7.50;;;0.93;;
40433;SDS011;26146;51.114;5.654;2023-04-25T13:47:27;6.40;;;0.80;;
40433;SDS011;26146;51.114;5.654;2023-04-25T13:51:28;6.47;;;0.80;;
40433;SDS011;26146;51.114;5.654;2023-04-25T13:55:29;7.20;;;0.90;;
40433;SDS011;26146;51.114;5.654;2023-04-25T13:59:30;6.10;;;0.90;;
40433;SDS011;26146;51.114;5.654;2023-04-25T14:03:32;5.07;;;0.90;;
40433;SDS011;26146;51.114;5.654;2023-04-25T14:12:56;8.00;;;1.07;;
40433;SDS011;26146;51.114;5.654;2023-04-25T14:16:57;5.90;;;1.10;;
40433;SDS011;26146;51.114;5.654;2023-04-25T14:20:58;6.30;;;0.87;;
40433;SDS011;26146;51.114;5.654;2023-04-25T14:25:00;8.27;;;1.00;;
40433;SDS011;26146;51.114;5.654;2023-04-25T14:29:01;8.17;;;1.10;;
40433;SDS011;26146;51.114;5.654;2023-04-25T14:33:02;6.77;;;1.20;;
40433;SDS011;26146;51.114;5.654;2023-04-25T14:37:04;7.50;;;1.07;;
40433;SDS011;26146;51.114;5.654;2023-04-25T14:41:05;9.50;;;1.60;;
40433;SDS011;26146;51.114;5.654;2023-04-25T14:45:06;6.07;;;0.90;;
40433;SDS011;26146;51.114;5.654;2023-04-25T14:49:11;5.97;;;1.00;;
40433;SDS011;26146;51.114;5.654;2023-04-25T14:53:12;7.77;;;1.00;;
40433;SDS011;26146;51.114;5.654;2023-04-25T14:57:14;5.10;;;0.80;;
40433;SDS011;26146;51.114;5.654;2023-04-25T15:01:16;7.13;;;1.03;;
40433;SDS011;26146;51.114;5.654;2023-04-25T15:05:17;6.17;;;0.70;;
40433;SDS011;26146;51.114;5.654;2023-04-25T15:09:18;8.50;;;1.20;;
40433;SDS011;26146;51.114;5.654;2023-04-25T15:13:20;7.60;;;0.90;;
40433;SDS011;26146;51.114;5.654;2023-04-25T15:17:21;4.40;;;0.73;;
40433;SDS011;26146;51.114;5.654;2023-04-25T15:21:22;4.10;;;0.73;;
40433;SDS011;26146;51.114;5.654;2023-04-25T15:25:24;5.80;;;0.80;;
40433;SDS011;26146;51.114;5.654;2023-04-25T15:29:25;6.97;;;0.97;;
40433;SDS011;26146;51.114;5.654;2023-04-25T15:33:27;7.53;;;1.00;;
40433;SDS011;26146;51.114;5.654;2023-04-25T15:37:28;6.43;;;0.80;;
40433;SDS011;26146;51.114;5.654;2023-04-25T15:41:30;6.43;;;0.80;;
40433;SDS011;26146;51.114;5.654;2023-04-25T15:45:31;5.03;;;0.83;;
40433;SDS011;26146;51.114;5.654;2023-04-25T15:49:33;5.77;;;0.70;;
40433;SDS011;26146;51.114;5.654;2023-04-25T15:53:34;7.23;;;1.20;;
40433;SDS011;26146;51.114;5.654;2023-04-25T15:57:35;6.43;;;1.00;;
40433;SDS011;26146;51.114;5.654;2023-04-25T16:01:36;9.13;;;1.40;;
40433;SDS011;26146;51.114;5.654;2023-04-25T16:05:39;6.33;;;1.00;;
40433;SDS011;26146;51.114;5.654;2023-04-25T16:09:40;7.43;;;1.00;;
40433;SDS011;26146;51.114;5.654;2023-04-25T16:13:41;7.17;;;1.07;;
40433;SDS011;26146;51.114;5.654;2023-04-25T16:17:42;6.40;;;0.80;;
40433;SDS011;26146;51.114;5.654;2023-04-25T16:21:43;6.07;;;0.80;;
40433;SDS011;26146;51.114;5.654;2023-04-25T16:25:45;11.60;;;3.63;;
40433;SDS011;26146;51.114;5.654;2023-04-25T16:29:46;7.37;;;1.40;;
40433;SDS011;26146;51.114;5.654;2023-04-25T16:33:48;7.27;;;1.10;;
40433;SDS011;26146;51.114;5.654;2023-04-25T16:37:50;6.23;;;0.90;;
40433;SDS011;26146;51.114;5.654;2023-04-25T16:41:51;7.43;;;0.90;;
40433;SDS011;26146;51.114;5.654;2023-04-25T16:45:52;8.70;;;1.57;;
40433;SDS011;26146;51.114;5.654;2023-04-25T16:49:53;6.03;;;1.10;;
40433;SDS011;26146;51.114;5.654;2023-04-25T16:53:55;5.97;;;0.80;;
40433;SDS011;26146;51.114;5.654;2023-04-25T16:57:56;8.23;;;0.93;;
40433;SDS011;26146;51.114;5.654;2023-04-25T17:01:58;7.40;;;1.30;;
40433;SDS011;26146;51.114;5.654;2023-04-25T17:05:59;7.80;;;1.30;;
40433;SDS011;26146;51.114;5.654;2023-04-25T17:10:01;6.37;;;1.20;;
40433;SDS011;26146;51.114;5.654;2023-04-25T17:14:03;6.37;;;1.10;;
40433;SDS011;26146;51.114;5.654;2023-04-25T17:18:04;7.30;;;1.07;;
40433;SDS011;26146;51.114;5.654;2023-04-25T17:22:05;9.47;;;1.23;;
40433;SDS011;26146;51.114;5.654;2023-04-25T17:26:06;7.53;;;1.07;;
40433;SDS011;26146;51.114;5.654;2023-04-25T17:30:08;7.33;;;1.10;;
40433;SDS011;26146;51.114;5.654;2023-04-25T17:34:10;7.37;;;1.47;;
40433;SDS011;26146;51.114;5.654;2023-04-25T17:38:15;11.03;;;2.47;;
40433;SDS011;26146;51.114;5.654;2023-04-25T17:42:16;7.97;;;1.40;;
40433;SDS011;26146;51.114;5.654;2023-04-25T17:46:18;8.53;;;0.97;;
40433;SDS011;26146;51.114;5.654;2023-04-25T17:50:19;7.93;;;1.20;;
40433;SDS011;26146;51.114;5.654;2023-04-25T17:54:20;8.43;;;1.30;;
40433;SDS011;26146;51.114;5.654;2023-04-25T17:58:24;8.67;;;1.53;;
40433;SDS011;26146;51.114;5.654;2023-04-25T18:02:26;9.20;;;1.47;;
40433;SDS011;26146;51.114;5.654;2023-04-25T18:06:27;9.20;;;1.13;;
40433;SDS011;26146;51.114;5.654;2023-04-25T18:10:28;7.50;;;1.27;;
40433;SDS011;26146;51.114;5.654;2023-04-25T18:14:30;6.60;;;1.10;;
40433;SDS011;26146;51.114;5.654;2023-04-25T18:18:33;8.57;;;1.37;;
40433;SDS011;26146;51.114;5.654;2023-04-25T18:22:35;9.63;;;1.50;;
40433;SDS011;26146;51.114;5.654;2023-04-25T18:26:37;9.90;;;1.80;;
40433;SDS011;26146;51.114;5.654;2023-04-25T18:30:38;7.50;;;2.07;;
40433;SDS011;26146;51.114;5.654;2023-04-25T18:34:39;8.83;;;1.50;;
40433;SDS011;26146;51.114;5.654;2023-04-25T18:38:42;12.10;;;1.50;;
40433;SDS011;26146;51.114;5.654;2023-04-25T18:42:44;8.07;;;1.50;;
40433;SDS011;26146;51.114;5.654;2023-04-25T18:46:45;7.93;;;1.47;;
40433;SDS011;26146;51.114;5.654;2023-04-25T18:50:46;6.87;;;1.50;;
40433;SDS011;26146;51.114;5.654;2023-04-25T18:54:47;7.60;;;1.40;;
40433;SDS011;26146;51.114;5.654;2023-04-25T18:58:49;7.30;;;1.33;;
40433;SDS011;26146;51.114;5.654;2023-04-25T19:02:51;7.30;;;1.53;;
40433;SDS011;26146;51.114;5.654;2023-04-25T19:06:52;7.80;;;1.40;;
40433;SDS011;26146;51.114;5.654;2023-04-25T19:10:53;6.47;;;1.37;;
40433;SDS011;26146;51.114;5.654;2023-04-25T19:14:54;8.63;;;1.40;;
40433;SDS011;26146;51.114;5.654;2023-04-25T19:18:56;8.80;;;1.60;;
40433;SDS011;26146;51.114;5.654;2023-04-25T19:22:57;7.63;;;1.73;;
40433;SDS011;26146;51.114;5.654;2023-04-25T19:26:58;16.57;;;6.77;;
40433;SDS011;26146;51.114;5.654;2023-04-25T19:30:59;10.17;;;3.57;;
40433;SDS011;26146;51.114;5.654;2023-04-25T19:35:01;9.53;;;2.33;;
40433;SDS011;26146;51.114;5.654;2023-04-25T19:39:05;8.83;;;1.47;;
40433;SDS011;26146;51.114;5.654;2023-04-25T19:43:07;8.47;;;1.70;;
40433;SDS011;26146;51.114;5.654;2023-04-25T19:47:08;10.73;;;1.70;;
40433;SDS011;26146;51.114;5.654;2023-04-25T19:51:10;8.33;;;1.70;;
40433;SDS011;26146;51.114;5.654;2023-04-25T19:55:12;10.90;;;2.10;;
40433;SDS011;26146;51.114;5.654;2023-04-25T19:59:13;7.87;;;1.80;;
40433;SDS011;26146;51.114;5.654;2023-04-25T20:03:14;8.17;;;1.90;;
40433;SDS011;26146;51.114;5.654;2023-04-25T20:07:15;9.73;;;2.50;;
40433;SDS011;26146;51.114;5.654;2023-04-25T20:15:22;7.47;;;1.70;;
40433;SDS011;26146;51.114;5.654;2023-04-25T20:19:23;7.47;;;1.70;;
40433;SDS011;26146;51.114;5.654;2023-04-25T20:23:24;7.73;;;1.77;;
40433;SDS011;26146;51.114;5.654;2023-04-25T20:27:25;10.53;;;1.87;;
40433;SDS011;26146;51.114;5.654;2023-04-25T20:31:26;8.23;;;1.70;;
40433;SDS011;26146;51.114;5.654;2023-04-25T20:35:28;7.67;;;1.67;;
40433;SDS011;26146;51.114;5.654;2023-04-25T20:39:32;6.63;;;2.00;;
40433;SDS011;26146;51.114;5.654;2023-04-25T20:43:34;7.67;;;1.90;;
40433;SDS011;26146;51.114;5.654;2023-04-25T20:47:36;9.20;;;1.90;;
40433;SDS011;26146;51.114;5.654;2023-04-25T20:51:38;10.63;;;2.10;;
40433;SDS011;26146;51.114;5.654;2023-04-25T20:55:40;9.07;;;2.03;;
40433;SDS011;26146;51.114;5.654;2023-04-25T20:59:41;9.57;;;2.13;;
40433;SDS011;26146;51.114;5.654;2023-04-25T21:03:42;8.53;;;1.90;;
40433;SDS011;26146;51.114;5.654;2023-04-25T21:07:44;9.13;;;1.90;;
40433;SDS011;26146;51.114;5.654;2023-04-25T21:11:46;9.53;;;2.10;;
40433;SDS011;26146;51.114;5.654;2023-04-25T21:15:47;8.47;;;2.10;;
40433;SDS011;26146;51.114;5.654;2023-04-25T21:19:48;9.23;;;2.03;;
40433;SDS011;26146;51.114;5.654;2023-04-25T21:23:49;10.70;;;2.13;;
40433;SDS011;26146;51.114;5.654;2023-04-25T21:27:51;11.63;;;2.20;;
40433;SDS011;26146;51.114;5.654;2023-04-25T21:31:52;9.33;;;2.10;;
40433;SDS011;26146;51.114;5.654;2023-04-25T21:35:53;12.03;;;2.20;;
40433;SDS011;26146;51.114;5.654;2023-04-25T21:39:55;10.73;;;2.40;;
40433;SDS011;26146;51.114;5.654;2023-04-25T21:43:56;7.57;;;2.27;;
40433;SDS011;26146;51.114;5.654;2023-04-25T21:47:57;9.57;;;2.60;;
40433;SDS011;26146;51.114;5.654;2023-04-25T21:51:58;10.53;;;2.50;;
40433;SDS011;26146;51.114;5.654;2023-04-25T21:56:00;11.00;;;2.80;;
40433;SDS011;26146;51.114;5.654;2023-04-25T22:00:01;11.60;;;2.70;;
40433;SDS011;26146;51.114;5.654;2023-04-25T22:04:03;9.00;;;2.53;;
40433;SDS011;26146;51.114;5.654;2023-04-25T22:08:04;9.27;;;2.47;;
40433;SDS011;26146;51.114;5.654;2023-04-25T22:12:06;9.53;;;2.50;;
40433;SDS011;26146;51.114;5.654;2023-04-25T22:16:07;8.17;;;2.50;;
40433;SDS011;26146;51.114;5.654;2023-04-25T22:20:11;9.17;;;2.30;;
40433;SDS011;26146;51.114;5.654;2023-04-25T22:24:13;10.40;;;2.77;;
40433;SDS011;26146;51.114;5.654;2023-04-25T22:28:15;11.27;;;2.80;;
40433;SDS011;26146;51.114;5.654;2023-04-25T22:32:16;12.87;;;2.97;;
40433;SDS011;26146;51.114;5.654;2023-04-25T22:36:17;11.00;;;2.63;;
40433;SDS011;26146;51.114;5.654;2023-04-25T22:40:18;9.57;;;2.50;;
40433;SDS011;26146;51.114;5.654;2023-04-25T22:44:20;10.37;;;3.00;;
40433;SDS011;26146;51.114;5.654;2023-04-25T22:48:21;11.27;;;3.30;;
40433;SDS011;26146;51.114;5.654;2023-04-25T22:52:22;11.53;;;3.07;;
40433;SDS011;26146;51.114;5.654;2023-04-25T22:56:24;9.97;;;2.83;;
40433;SDS011;26146;51.114;5.654;2023-04-25T23:00:26;9.40;;;3.60;;
40433;SDS011;26146;51.114;5.654;2023-04-25T23:04:29;9.67;;;3.40;;
40433;SDS011;26146;51.114;5.654;2023-04-25T23:08:30;9.47;;;3.03;;
40433;SDS011;26146;51.114;5.654;2023-04-25T23:12:32;9.10;;;2.80;;
40433;SDS011;26146;51.114;5.654;2023-04-25T23:16:34;9.80;;;2.80;;
40433;SDS011;26146;51.114;5.654;2023-04-25T23:20:35;10.90;;;3.00;;
40433;SDS011;26146;51.114;5.654;2023-04-25T23:24:36;9.07;;;2.80;;
40433;SDS011;26146;51.114;5.654;2023-04-25T23:28:40;8.23;;;2.80;;
40433;SDS011;26146;51.114;5.654;2023-04-25T23:32:42;10.07;;;2.90;;
40433;SDS011;26146;51.114;5.654;2023-04-25T23:36:43;10.07;;;3.00;;
40433;SDS011;26146;51.114;5.654;2023-04-25T23:40:44;10.57;;;3.00;;
40433;SDS011;26146;51.114;5.654;2023-04-25T23:44:46;10.70;;;3.10;;
40433;SDS011;26146;51.114;5.654;2023-04-25T23:48:47;10.63;;;2.80;;
40433;SDS011;26146;51.114;5.654;2023-04-25T23:52:48;8.73;;;2.63;;
40433;SDS011;26146;51.114;5.654;2023-04-25T23:56:49;9.97;;;2.87;;
